createdAt,value
2023-04-28T00:00:32.674Z,7.7
2023-04-28T00:02:13.055Z,7.73
2023-04-28T00:03:53.575Z,7.75
2023-04-28T00:05:33.789Z,7.75
2023-04-28T00:07:14.053Z,7.77
2023-04-28T00:08:54.387Z,7.8
2023-04-28T00:10:34.825Z,7.76
2023-04-28T00:12:15.264Z,7.76
2023-04-28T00:13:55.680Z,7.77
2023-04-28T00:15:36.139Z,7.8
2023-04-28T00:17:16.608Z,7.79
2023-04-28T00:18:57.006Z,7.83
2023-04-28T00:20:37.361Z,7.83
2023-04-28T00:22:17.733Z,7.8
2023-04-28T00:23:58.140Z,7.83
2023-04-28T00:25:38.547Z,7.83
2023-04-28T00:27:18.950Z,7.82
2023-04-28T00:28:59.301Z,7.82
2023-04-28T00:30:39.662Z,7.8
2023-04-28T00:32:20.058Z,7.79
2023-04-28T00:34:00.475Z,7.79
2023-04-28T00:35:40.821Z,7.8
2023-04-28T00:37:21.194Z,7.82
2023-04-28T00:39:01.522Z,7.82
2023-04-28T00:40:41.918Z,7.79
2023-04-28T00:42:22.254Z,7.77
2023-04-28T00:44:02.601Z,7.77
2023-04-28T00:45:42.970Z,7.76
2023-04-28T00:47:23.370Z,7.77
2023-04-28T00:49:03.656Z,7.79
2023-04-28T00:50:44.116Z,7.76
2023-04-28T00:52:24.470Z,7.73
2023-04-28T00:54:04.868Z,7.7
2023-04-28T00:55:45.303Z,7.67
2023-04-28T00:57:25.674Z,7.65
2023-04-28T00:59:06.038Z,7.65
2023-04-28T01:00:46.437Z,7.63
2023-04-28T01:02:26.987Z,7.59
2023-04-28T01:04:07.784Z,7.59
2023-04-28T01:05:47.632Z,7.59
2023-04-28T01:07:28.018Z,7.55
2023-04-28T01:09:08.428Z,7.48
2023-04-28T01:10:48.826Z,7.45
2023-04-28T01:12:29.249Z,7.44
2023-04-28T01:14:09.674Z,7.42
2023-04-28T01:15:50.073Z,7.48
2023-04-28T01:17:30.585Z,7.45
2023-04-28T01:19:11.014Z,7.49
2023-04-28T01:20:51.385Z,7.52
2023-04-28T01:22:31.760Z,7.52
2023-04-28T01:24:12.188Z,7.55
2023-04-28T01:25:52.625Z,7.58
2023-04-28T01:27:33.026Z,7.56
2023-04-28T01:29:13.424Z,7.55
2023-04-28T01:30:53.787Z,7.49
2023-04-28T01:32:34.313Z,7.52
2023-04-28T01:34:14.784Z,7.54
2023-04-28T01:35:55.022Z,7.54
2023-04-28T01:37:35.366Z,7.54
2023-04-28T01:39:15.800Z,7.55
2023-04-28T01:40:56.123Z,7.52
2023-04-28T01:42:36.430Z,7.55
2023-04-28T01:44:17.105Z,7.54
2023-04-28T01:45:57.128Z,7.55
2023-04-28T01:47:37.512Z,7.59
2023-04-28T01:49:17.878Z,7.59
2023-04-28T01:50:58.233Z,7.62
2023-04-28T01:52:38.639Z,7.61
2023-04-28T01:54:19.184Z,7.58
2023-04-28T01:55:59.395Z,7.61
2023-04-28T01:57:39.847Z,7.61
2023-04-28T01:59:20.240Z,7.63
2023-04-28T02:01:00.666Z,7.62
2023-04-28T02:02:41.117Z,7.62
2023-04-28T02:04:21.595Z,7.62
2023-04-28T02:06:01.941Z,7.62
2023-04-28T02:07:42.280Z,7.65
2023-04-28T02:09:22.585Z,7.65
2023-04-28T02:11:03.058Z,7.67
2023-04-28T02:12:43.536Z,7.67
2023-04-28T02:14:23.832Z,7.69
2023-04-28T02:16:04.188Z,7.72
2023-04-28T02:17:44.560Z,7.76
2023-04-28T02:19:24.773Z,7.79
2023-04-28T02:21:05.168Z,7.79
2023-04-28T02:22:45.540Z,7.77
2023-04-28T02:24:25.892Z,7.79
2023-04-28T02:26:06.249Z,7.82
2023-04-28T02:27:46.596Z,7.79
2023-04-28T02:29:27.021Z,7.82
2023-04-28T02:31:07.585Z,7.82
2023-04-28T02:32:47.887Z,7.83
2023-04-28T02:34:28.290Z,7.83
2023-04-28T02:36:08.743Z,7.85
2023-04-28T02:37:49.110Z,7.86
2023-04-28T02:39:29.540Z,7.86
2023-04-28T02:41:09.943Z,7.89
2023-04-28T02:42:50.334Z,7.9
2023-04-28T02:44:30.717Z,7.87
2023-04-28T02:46:11.135Z,7.83
2023-04-28T02:47:51.556Z,7.86
2023-04-28T02:49:31.922Z,7.8
2023-04-28T02:51:12.276Z,7.86
2023-04-28T02:52:52.708Z,7.85
2023-04-28T02:54:33.193Z,7.9
2023-04-28T02:56:13.531Z,7.87
2023-04-28T02:57:53.863Z,7.87
2023-04-28T02:59:34.140Z,7.89
2023-04-28T03:01:14.523Z,7.94
2023-04-28T03:02:55.064Z,7.97
2023-04-28T03:04:35.132Z,7.92
2023-04-28T03:06:15.417Z,7.94
2023-04-28T03:07:55.802Z,7.94
2023-04-28T03:09:36.214Z,7.92
2023-04-28T03:11:16.662Z,7.92
2023-04-28T03:12:57.079Z,7.94
2023-04-28T03:14:37.451Z,7.9
2023-04-28T03:16:17.923Z,7.92
2023-04-28T03:17:58.369Z,7.89
2023-04-28T03:19:38.688Z,7.87
2023-04-28T03:21:19.112Z,7.89
2023-04-28T03:22:59.554Z,7.86
2023-04-28T03:24:39.897Z,7.89
2023-04-28T03:26:20.309Z,7.86
2023-04-28T03:28:00.736Z,7.86
2023-04-28T03:29:41.148Z,7.86
2023-04-28T03:31:21.558Z,7.86
2023-04-28T03:33:01.997Z,7.83
2023-04-28T03:34:42.396Z,7.85
2023-04-28T03:36:22.800Z,7.86
2023-04-28T03:38:03.187Z,7.86
2023-04-28T03:39:43.505Z,7.8
2023-04-28T03:41:23.861Z,7.85
2023-04-28T03:43:05.001Z,7.92
2023-04-28T03:44:44.629Z,7.89
2023-04-28T03:46:25.048Z,7.89
2023-04-28T03:48:05.503Z,7.86
2023-04-28T03:49:45.779Z,7.89
2023-04-28T03:51:26.131Z,7.89
2023-04-28T03:53:06.573Z,7.86
2023-04-28T03:54:46.894Z,7.86
2023-04-28T03:56:27.275Z,7.86
2023-04-28T03:58:07.736Z,7.83
2023-04-28T03:59:48.249Z,7.89
2023-04-28T04:01:28.634Z,7.87
2023-04-28T04:03:09.295Z,7.87
2023-04-28T04:04:49.790Z,7.87
2023-04-28T04:06:29.840Z,7.92
2023-04-28T04:08:10.219Z,7.92
2023-04-28T04:09:50.550Z,7.9
2023-04-28T04:11:30.943Z,7.92
2023-04-28T04:13:11.349Z,7.89
2023-04-28T04:14:51.827Z,7.87
2023-04-28T04:16:32.245Z,7.87
2023-04-28T04:18:12.541Z,7.86
2023-04-28T04:19:52.844Z,7.83
2023-04-28T04:21:33.138Z,7.85
2023-04-28T04:23:13.538Z,7.85
2023-04-28T04:24:53.974Z,7.85
2023-04-28T04:26:34.225Z,7.85
2023-04-28T04:28:14.607Z,7.85
2023-04-28T04:29:55.074Z,7.83
2023-04-28T04:31:35.461Z,7.85
2023-04-28T04:33:15.828Z,7.85
2023-04-28T04:34:56.268Z,7.85
2023-04-28T04:36:36.718Z,7.83
2023-04-28T04:38:17.134Z,7.86
2023-04-28T04:39:57.477Z,7.85
2023-04-28T04:41:37.860Z,7.9
2023-04-28T04:43:18.175Z,7.87
2023-04-28T04:44:58.507Z,7.89
2023-04-28T04:46:39.046Z,7.9
2023-04-28T04:48:19.353Z,7.92
2023-04-28T04:49:59.733Z,7.96
2023-04-28T04:51:40.216Z,7.93
2023-04-28T04:53:20.561Z,7.97
2023-04-28T04:55:00.917Z,7.98
2023-04-28T04:56:41.313Z,8.01
2023-04-28T04:58:21.758Z,8.03
2023-04-28T05:00:02.119Z,8.07
2023-04-28T05:01:42.505Z,8.11
2023-04-28T05:03:22.891Z,8.14
2023-04-28T05:05:12.789Z,8.14
2023-04-28T05:06:43.683Z,8.24
2023-04-28T05:08:24.062Z,8.24
2023-04-28T05:10:04.461Z,8.24
2023-04-28T05:11:44.970Z,8.25
2023-04-28T05:13:25.380Z,8.24
2023-04-28T05:15:05.818Z,8.3
2023-04-28T05:16:46.329Z,8.31
2023-04-28T05:18:26.702Z,8.33
2023-04-28T05:20:07.077Z,8.31
2023-04-28T05:21:47.586Z,8.33
2023-04-28T05:23:28.010Z,8.34
2023-04-28T05:25:08.453Z,8.38
2023-04-28T05:26:48.854Z,8.4
2023-04-28T05:28:29.270Z,8.4
2023-04-28T05:30:09.649Z,8.38
2023-04-28T05:31:50.070Z,8.38
2023-04-28T05:33:30.343Z,8.37
2023-04-28T05:35:10.752Z,8.34
2023-04-28T05:36:51.200Z,8.33
2023-04-28T05:38:31.539Z,8.33
2023-04-28T05:40:12.074Z,8.28
2023-04-28T05:41:52.404Z,8.3
2023-04-28T05:43:32.833Z,8.31
2023-04-28T05:45:13.282Z,8.31
2023-04-28T05:46:53.768Z,8.35
2023-04-28T05:48:34.061Z,8.35
2023-04-28T05:50:14.477Z,8.37
2023-04-28T05:51:54.942Z,8.41
2023-04-28T05:53:35.329Z,8.44
2023-04-28T05:55:15.783Z,8.49
2023-04-28T05:56:56.254Z,8.49
2023-04-28T05:58:36.641Z,8.55
2023-04-28T06:00:17.039Z,8.61
2023-04-28T06:01:57.441Z,8.63
2023-04-28T06:03:38.020Z,8.69
2023-04-28T06:05:18.365Z,8.73
2023-04-28T06:06:58.451Z,8.75
2023-04-28T06:08:38.732Z,8.8
2023-04-28T06:10:19.087Z,8.82
2023-04-28T06:11:59.538Z,8.8
2023-04-28T06:13:39.964Z,8.86
2023-04-28T06:15:20.485Z,8.9
2023-04-28T06:17:00.788Z,8.9
2023-04-28T06:18:41.251Z,8.93
2023-04-28T06:20:21.732Z,8.93
2023-04-28T06:22:02.148Z,8.94
2023-04-28T06:23:42.522Z,8.94
2023-04-28T06:25:22.939Z,8.93
2023-04-28T06:27:03.390Z,8.93
2023-04-28T06:28:43.796Z,8.94
2023-04-28T06:30:24.251Z,8.93
2023-04-28T06:32:04.625Z,8.92
2023-04-28T06:33:45.007Z,8.94
2023-04-28T06:35:25.440Z,8.93
2023-04-28T06:37:05.859Z,8.98
2023-04-28T06:38:46.234Z,8.99
2023-04-28T06:40:26.617Z,9.03
2023-04-28T06:42:06.922Z,9.03
2023-04-28T06:43:47.236Z,9.06
2023-04-28T06:45:27.543Z,9.07
2023-04-28T06:47:07.950Z,9.11
2023-04-28T06:48:48.215Z,9.14
2023-04-28T06:50:28.635Z,9.14
2023-04-28T06:52:09.019Z,9.16
2023-04-28T06:53:49.507Z,9.2
2023-04-28T06:55:29.914Z,9.21
2023-04-28T06:57:10.264Z,9.21
2023-04-28T06:58:50.656Z,9.2
2023-04-28T07:00:31.047Z,9.19
2023-04-28T07:02:11.450Z,9.2
2023-04-28T07:03:51.886Z,9.19
2023-04-28T07:05:32.259Z,9.16
2023-04-28T07:07:12.629Z,9.16
2023-04-28T07:08:53.078Z,9.17
2023-04-28T07:10:33.479Z,9.17
2023-04-28T07:12:13.874Z,9.19
2023-04-28T07:13:54.389Z,9.17
2023-04-28T07:15:34.705Z,9.17
2023-04-28T07:17:15.074Z,9.16
2023-04-28T07:18:55.536Z,9.16
2023-04-28T07:20:35.974Z,9.16
2023-04-28T07:22:16.271Z,9.19
2023-04-28T07:23:56.660Z,9.19
2023-04-28T07:25:36.980Z,9.2
2023-04-28T07:27:17.307Z,9.23
2023-04-28T07:28:57.584Z,9.24
2023-04-28T07:30:37.951Z,9.24
2023-04-28T07:32:18.401Z,9.31
2023-04-28T07:33:58.511Z,9.34
2023-04-28T07:35:38.812Z,9.41
2023-04-28T07:37:19.135Z,9.47
2023-04-28T07:38:59.416Z,9.51
2023-04-28T07:40:39.717Z,9.61
2023-04-28T07:42:20.033Z,9.71
2023-04-28T07:50:47.824Z,0
2023-04-28T07:52:28.228Z,9.99
2023-04-28T07:54:08.701Z,10.05
2023-04-28T07:55:49.068Z,10.06
2023-04-28T07:57:29.471Z,10.07
2023-04-28T07:59:09.765Z,10.12
2023-04-28T08:00:50.216Z,10.2
2023-04-28T08:02:30.824Z,10.27
2023-04-28T08:04:11.457Z,10.29
2023-04-28T08:05:51.562Z,10.32
2023-04-28T08:07:31.788Z,10.33
2023-04-28T08:09:12.219Z,10.41
2023-04-28T08:10:52.560Z,10.54
2023-04-28T08:12:32.901Z,10.6
2023-04-28T08:14:13.334Z,10.68
2023-04-28T08:15:53.748Z,10.68
2023-04-28T08:17:34.209Z,10.68
2023-04-28T08:19:14.617Z,10.68
2023-04-28T08:20:55.075Z,10.67
2023-04-28T08:22:35.500Z,10.68
2023-04-28T08:24:16.103Z,10.67
2023-04-28T08:25:56.403Z,10.74
2023-04-28T08:27:36.779Z,10.81
2023-04-28T08:29:17.164Z,10.85
2023-04-28T08:30:57.557Z,10.78
2023-04-28T08:32:38.025Z,10.85
2023-04-28T08:34:18.842Z,10.91
2023-04-28T08:35:58.901Z,10.88
2023-04-28T08:37:39.341Z,10.86
2023-04-28T08:39:19.724Z,10.94
2023-04-28T08:41:00.150Z,10.95
2023-04-28T08:42:40.591Z,11.01
2023-04-28T08:44:21.012Z,11.08
2023-04-28T08:46:01.404Z,11.13
2023-04-28T08:47:41.948Z,11.18
2023-04-28T08:49:22.298Z,11.15
2023-04-28T08:51:02.676Z,11.16
2023-04-28T08:52:43.081Z,11.25
2023-04-28T08:54:26.913Z,11.26
2023-04-28T08:56:03.865Z,11.25
2023-04-28T08:57:44.350Z,11.22
2023-04-28T08:59:24.740Z,11.29
2023-04-28T09:01:05.159Z,11.29
2023-04-28T09:02:45.680Z,11.42
2023-04-28T09:04:26.737Z,11.54
2023-04-28T09:06:06.378Z,11.66
2023-04-28T09:07:46.844Z,11.8
2023-04-28T09:09:27.245Z,11.92
2023-04-28T09:11:07.619Z,12.01
2023-04-28T09:12:48.086Z,12.02
2023-04-28T09:14:28.521Z,12.12
2023-04-28T09:16:08.926Z,12.25
2023-04-28T09:17:49.349Z,12.4
2023-04-28T09:19:29.671Z,12.48
2023-04-28T09:21:10.102Z,12.5
2023-04-28T09:22:50.587Z,12.55
2023-04-28T09:24:30.931Z,12.52
2023-04-28T09:26:11.374Z,12.56
2023-04-28T09:27:51.766Z,12.56
2023-04-28T09:29:32.290Z,12.59
2023-04-28T09:31:12.696Z,12.55
2023-04-28T09:32:53.194Z,12.48
2023-04-28T09:34:33.605Z,12.39
2023-04-28T09:36:14.029Z,12.39
2023-04-28T09:37:54.463Z,12.35
2023-04-28T09:39:34.846Z,12.36
2023-04-28T09:41:15.267Z,12.35
2023-04-28T09:42:55.622Z,12.42
2023-04-28T09:44:35.978Z,12.45
2023-04-28T09:46:16.578Z,12.53
2023-04-28T09:47:56.807Z,12.55
2023-04-28T09:49:37.156Z,12.6
2023-04-28T09:51:17.553Z,12.63
2023-04-28T09:52:57.942Z,12.62
2023-04-28T09:54:38.478Z,12.67
2023-04-28T09:56:18.870Z,12.63
2023-04-28T09:57:59.321Z,12.63
2023-04-28T09:59:39.741Z,12.57
2023-04-28T10:01:25.747Z,12.6
2023-04-28T10:03:06.252Z,12.59
2023-04-28T10:04:46.653Z,12.52
2023-04-28T10:06:26.765Z,12.53
2023-04-28T10:08:07.153Z,12.49
2023-04-28T10:09:47.606Z,12.53
2023-04-28T10:11:28.028Z,12.6
2023-04-28T10:13:08.463Z,12.72
2023-04-28T10:14:48.738Z,12.76
2023-04-28T10:16:29.229Z,12.88
2023-04-28T10:18:09.614Z,12.97
2023-04-28T10:19:50.037Z,13.06
2023-04-28T10:21:30.463Z,13.04
2023-04-28T10:23:10.846Z,13.04
2023-04-28T10:24:51.357Z,13
2023-04-28T10:26:31.783Z,13.15
2023-04-28T10:28:12.252Z,13.24
2023-04-28T10:29:52.685Z,13.37
2023-04-28T10:31:33.109Z,13.49
2023-04-28T10:33:13.749Z,13.54
2023-04-28T10:34:53.964Z,13.54
2023-04-28T10:36:36.464Z,13.52
2023-04-28T10:38:14.777Z,13.45
2023-04-28T10:39:55.195Z,13.49
2023-04-28T10:41:35.535Z,13.54
2023-04-28T10:43:15.970Z,13.59
2023-04-28T10:44:56.368Z,13.63
2023-04-28T10:46:36.783Z,13.65
2023-04-28T10:48:17.107Z,13.61
2023-04-28T10:49:57.726Z,13.58
2023-04-28T10:51:38.076Z,13.61
2023-04-28T10:53:18.451Z,13.55
2023-04-28T10:54:58.940Z,13.52
2023-04-28T10:56:41.858Z,13.49
2023-04-28T10:58:19.898Z,13.49
2023-04-28T11:00:00.334Z,13.49
2023-04-28T11:01:40.801Z,13.55
2023-04-28T11:03:21.349Z,13.56
2023-04-28T11:05:01.631Z,13.59
2023-04-28T11:06:41.949Z,13.58
2023-04-28T11:08:22.346Z,13.55
2023-04-28T11:10:02.708Z,13.54
2023-04-28T11:11:43.065Z,13.54
2023-04-28T11:13:23.482Z,13.49
2023-04-28T11:15:03.954Z,13.48
2023-04-28T11:16:44.547Z,13.48
2023-04-28T11:18:24.765Z,13.42
2023-04-28T11:20:05.199Z,13.45
2023-04-28T11:21:45.591Z,13.48
2023-04-28T11:23:26.039Z,13.45
2023-04-28T11:25:06.407Z,13.38
2023-04-28T11:26:46.814Z,13.38
2023-04-28T11:28:27.116Z,13.39
2023-04-28T11:30:07.643Z,13.37
2023-04-28T11:31:48.049Z,13.34
2023-04-28T11:33:28.433Z,13.37
2023-04-28T11:35:08.865Z,13.39
2023-04-28T11:36:49.284Z,13.38
2023-04-28T11:38:29.693Z,13.42
2023-04-28T11:40:10.184Z,13.44
2023-04-28T11:41:50.527Z,13.39
2023-04-28T11:43:43.641Z,13.39
2023-04-28T11:45:11.308Z,13.41
2023-04-28T11:46:51.790Z,13.41
2023-04-28T11:48:32.118Z,13.38
2023-04-28T11:50:12.466Z,13.46
2023-04-28T11:51:52.899Z,13.49
2023-04-28T11:53:33.343Z,13.59
2023-04-28T11:55:13.741Z,13.77
2023-04-28T11:56:54.186Z,13.86
2023-04-28T11:58:34.679Z,13.96
2023-04-28T12:00:15.243Z,13.97
2023-04-28T12:01:55.473Z,14.07
2023-04-28T12:03:36.029Z,14.14
2023-04-28T12:05:16.394Z,14.25
2023-04-28T12:06:56.768Z,14.28
2023-04-28T12:08:37.270Z,14.37
2023-04-28T12:10:17.767Z,14.49
2023-04-28T12:11:58.151Z,14.59
2023-04-28T12:13:38.605Z,14.76
2023-04-28T12:15:20.750Z,14.85
2023-04-28T12:16:59.452Z,14.88
2023-04-28T12:18:39.786Z,15
2023-04-28T12:20:20.129Z,15.1
2023-04-28T12:22:00.513Z,15.11
2023-04-28T12:23:40.957Z,15.22
2023-04-28T12:25:21.259Z,15.5
2023-04-28T12:27:01.704Z,15.65
2023-04-28T12:28:42.116Z,15.69
2023-04-28T12:30:22.504Z,15.84
2023-04-28T12:32:02.924Z,15.99
2023-04-28T12:33:43.290Z,16.16
2023-04-28T12:35:23.788Z,16.17
2023-04-28T12:37:04.178Z,16.12
2023-04-28T12:38:44.567Z,16.12
2023-04-28T12:40:24.890Z,16.04
2023-04-28T12:42:05.353Z,15.94
2023-04-28T12:43:45.792Z,15.88
2023-04-28T12:45:26.257Z,15.91
2023-04-28T12:47:06.682Z,15.96
2023-04-28T12:48:47.119Z,15.99
2023-04-28T12:50:27.516Z,15.96
2023-04-28T12:52:07.943Z,15.95
2023-04-28T12:53:48.199Z,15.88
2023-04-28T12:55:28.655Z,15.84
2023-04-28T12:57:09.117Z,15.86
2023-04-28T12:58:49.564Z,15.71
2023-04-28T13:00:29.928Z,15.71
2023-04-28T13:02:10.343Z,15.78
2023-04-28T13:03:50.810Z,15.91
2023-04-28T13:05:31.231Z,16.06
2023-04-28T13:07:11.680Z,16.08
2023-04-28T13:08:52.058Z,16.06
2023-04-28T13:10:32.458Z,16.15
2023-04-28T13:12:12.997Z,16.19
2023-04-28T13:13:53.392Z,16.25
2023-04-28T13:15:33.760Z,16.27
2023-04-28T13:17:14.168Z,16.64
2023-04-28T13:18:54.563Z,16.73
2023-04-28T13:20:35.006Z,16.75
2023-04-28T13:22:15.331Z,16.66
2023-04-28T13:23:55.646Z,16.61
2023-04-28T13:25:36.055Z,16.63
2023-04-28T13:27:16.417Z,16.64
2023-04-28T13:28:56.839Z,16.6
2023-04-28T13:30:37.332Z,16.63
2023-04-28T13:32:17.701Z,16.75
2023-04-28T13:33:58.039Z,16.74
2023-04-28T13:35:38.510Z,16.84
2023-04-28T13:37:18.872Z,16.84
2023-04-28T13:39:01.649Z,16.95
2023-04-28T13:40:39.882Z,16.92
2023-04-28T13:42:20.305Z,17.05
2023-04-28T13:44:00.694Z,17.01
2023-04-28T13:45:41.178Z,16.92
2023-04-28T13:47:21.620Z,16.95
2023-04-28T13:49:01.969Z,17
2023-04-28T13:50:42.492Z,17.04
2023-04-28T13:52:22.805Z,16.98
2023-04-28T13:54:03.058Z,17.07
2023-04-28T13:55:43.384Z,16.92
2023-04-28T13:57:23.731Z,16.68
2023-04-28T13:59:04.132Z,16.52
2023-04-28T14:00:44.539Z,16.43
2023-04-28T14:02:25.128Z,16.4
2023-04-28T14:04:05.729Z,16.46
2023-04-28T14:05:49.765Z,16.49
2023-04-28T14:07:26.262Z,16.43
2023-04-28T14:09:06.705Z,16.44
2023-04-28T14:10:47.125Z,16.46
2023-04-28T14:12:27.583Z,16.6
2023-04-28T14:14:07.972Z,16.64
2023-04-28T14:15:59.130Z,16.6
2023-04-28T14:17:28.855Z,16.75
2023-04-28T14:19:09.260Z,16.87
2023-04-28T14:20:49.742Z,16.82
2023-04-28T14:22:30.130Z,16.84
2023-04-28T14:24:13.612Z,16.91
2023-04-28T14:25:51.070Z,16.9
2023-04-28T14:27:31.504Z,16.87
2023-04-28T14:29:11.935Z,16.8
2023-04-28T14:30:52.447Z,16.73
2023-04-28T14:32:32.937Z,16.61
2023-04-28T14:34:13.253Z,16.61
2023-04-28T14:35:53.667Z,16.49
2023-04-28T14:37:34.020Z,16.34
2023-04-28T14:39:14.364Z,16.2
2023-04-28T14:40:54.728Z,16.16
2023-04-28T14:42:35.183Z,16.13
2023-04-28T14:44:15.528Z,16.06
2023-04-28T14:45:55.976Z,16.06
2023-04-28T14:47:36.404Z,16.06
2023-04-28T14:49:22.975Z,16.01
2023-04-28T14:51:03.414Z,15.98
2023-04-28T14:52:43.796Z,15.95
2023-04-28T14:54:24.150Z,15.88
2023-04-28T14:56:17.291Z,15.81
2023-04-28T14:57:44.781Z,15.75
2023-04-28T14:59:25.187Z,15.65
2023-04-28T15:01:05.610Z,15.58
2023-04-28T15:02:46.074Z,15.56
2023-04-28T15:04:26.460Z,15.57
2023-04-28T15:06:06.674Z,15.53
2023-04-28T15:07:47.051Z,15.51
2023-04-28T15:09:27.387Z,15.43
2023-04-28T15:11:07.765Z,15.44
2023-04-28T15:12:48.137Z,15.41
2023-04-28T15:14:28.610Z,15.4
2023-04-28T15:16:09.014Z,15.47
2023-04-28T15:17:49.362Z,15.5
2023-04-28T15:19:29.710Z,15.48
2023-04-28T15:21:10.186Z,15.46
2023-04-28T15:22:50.604Z,15.43
2023-04-28T15:24:31.063Z,15.44
2023-04-28T15:26:11.431Z,15.37
2023-04-28T15:27:51.829Z,15.34
2023-04-28T15:29:32.239Z,15.3
2023-04-28T15:31:15.678Z,15.26
2023-04-28T15:32:53.167Z,15.25
2023-04-28T15:34:33.509Z,15.22
2023-04-28T15:36:14.033Z,15.2
2023-04-28T15:37:54.376Z,15.16
2023-04-28T15:39:34.768Z,15.06
2023-04-28T15:41:15.165Z,15.02
2023-04-28T15:42:55.619Z,14.95
2023-04-28T15:44:36.088Z,14.9
2023-04-28T15:46:16.600Z,14.86
2023-04-28T15:47:56.953Z,14.85
2023-04-28T15:49:37.387Z,14.82
2023-04-28T15:51:17.767Z,14.82
2023-04-28T15:53:05.288Z,14.78
2023-04-28T15:54:38.654Z,14.74
2023-04-28T15:56:19.746Z,14.72
2023-04-28T15:57:59.514Z,14.67
2023-04-28T15:59:39.952Z,14.67
2023-04-28T16:01:20.412Z,14.74
2023-04-28T16:03:00.937Z,14.78
2023-04-28T16:04:41.308Z,14.93
2023-04-28T16:06:21.603Z,15.1
2023-04-28T16:08:02.049Z,15.3
2023-04-28T16:09:42.474Z,15.31
2023-04-28T16:11:22.894Z,15.27
2023-04-28T16:13:03.251Z,15.29
2023-04-28T16:14:43.616Z,15.34
2023-04-28T16:16:24.126Z,15.34
2023-04-28T16:18:04.368Z,15.25
2023-04-28T16:19:44.744Z,15.23
2023-04-28T16:21:25.184Z,15.29
2023-04-28T16:23:05.624Z,15.3
2023-04-28T16:24:45.968Z,15.25
2023-04-28T16:26:26.443Z,15.16
2023-04-28T16:28:06.930Z,15.06
2023-04-28T16:29:47.333Z,15
2023-04-28T16:31:27.796Z,14.93
2023-04-28T16:33:08.352Z,14.95
2023-04-28T16:34:48.890Z,14.93
2023-04-28T16:36:29.158Z,14.92
2023-04-28T16:38:09.555Z,14.92
2023-04-28T16:39:50.116Z,14.95
2023-04-28T16:41:30.307Z,14.95
2023-04-28T16:43:10.801Z,14.98
2023-04-28T16:44:52.770Z,14.98
2023-04-28T16:46:34.708Z,15
2023-04-28T16:48:12.124Z,15.05
2023-04-28T16:49:53.001Z,15.02
2023-04-28T16:51:33.101Z,15.05
2023-04-28T16:53:13.535Z,15
2023-04-28T16:54:53.902Z,15.03
2023-04-28T16:56:34.317Z,15.06
2023-04-28T16:58:14.715Z,15.1
2023-04-28T16:59:55.129Z,15.06
2023-04-28T17:01:35.593Z,15.06
2023-04-28T17:03:16.453Z,15.05
2023-04-28T17:04:56.513Z,15
2023-04-28T17:06:36.976Z,15
2023-04-28T17:08:17.437Z,15.03
2023-04-28T17:09:57.803Z,15.03
2023-04-28T17:11:38.273Z,14.99
2023-04-28T17:13:21.737Z,14.99
2023-04-28T17:14:59.035Z,15.03
2023-04-28T17:16:39.428Z,15.03
2023-04-28T17:18:19.865Z,15
2023-04-28T17:20:00.269Z,15.02
2023-04-28T17:21:40.793Z,14.95
2023-04-28T17:23:21.192Z,14.96
2023-04-28T17:25:01.614Z,14.98
2023-04-28T17:26:42.018Z,14.93
2023-04-28T17:28:22.490Z,14.96
2023-04-28T17:30:02.866Z,14.93
2023-04-28T17:31:43.277Z,14.93
2023-04-28T17:33:23.656Z,14.89
2023-04-28T17:35:03.993Z,14.88
2023-04-28T17:36:44.427Z,14.88
2023-04-28T17:38:24.793Z,14.89
2023-04-28T17:40:05.137Z,14.86
2023-04-28T17:41:45.561Z,14.83
2023-04-28T17:43:25.941Z,14.8
2023-04-28T17:45:06.346Z,14.78
2023-04-28T17:46:46.733Z,14.75
2023-04-28T17:48:27.133Z,14.74
2023-04-28T17:50:07.520Z,14.69
2023-04-28T17:51:47.985Z,14.67
2023-04-28T17:53:28.314Z,14.61
2023-04-28T17:55:08.680Z,14.61
2023-04-28T17:56:56.259Z,14.57
2023-04-28T17:58:29.624Z,14.55
2023-04-28T18:00:10.125Z,14.52
2023-04-28T18:01:50.612Z,14.48
2023-04-28T18:03:31.092Z,14.44
2023-04-28T18:05:11.728Z,14.42
2023-04-28T18:06:51.877Z,14.4
2023-04-28T18:08:32.228Z,14.38
2023-04-28T18:10:12.653Z,14.32
2023-04-28T18:11:53.066Z,14.27
2023-04-28T18:13:33.523Z,14.23
2023-04-28T18:15:13.870Z,14.19
2023-04-28T18:16:54.291Z,14.17
2023-04-28T18:18:35.614Z,14.13
2023-04-28T18:20:15.147Z,14.07
2023-04-28T18:21:55.498Z,14.04
2023-04-28T18:23:35.919Z,14.03
2023-04-28T18:25:16.249Z,14.02
2023-04-28T18:26:56.780Z,13.97
2023-04-28T18:28:37.137Z,13.93
2023-04-28T18:30:17.546Z,13.89
2023-04-28T18:31:57.964Z,13.86
2023-04-28T18:33:38.499Z,13.82
2023-04-28T18:35:18.786Z,13.76
2023-04-28T18:36:59.253Z,13.73
2023-04-28T18:38:42.781Z,13.69
2023-04-28T18:40:20.077Z,13.59
2023-04-28T18:42:03.480Z,13.54
2023-04-28T18:43:40.920Z,13.44
2023-04-28T18:45:21.290Z,13.35
2023-04-28T18:47:01.712Z,13.33
2023-04-28T18:48:42.094Z,13.27
2023-04-28T18:50:22.467Z,13.24
2023-04-28T18:52:02.878Z,13.18
2023-04-28T18:53:43.309Z,13.08
2023-04-28T18:55:23.720Z,13
2023-04-28T18:57:04.122Z,12.94
2023-04-28T18:58:44.575Z,12.88
2023-04-28T19:00:24.914Z,12.86
2023-04-28T19:02:05.288Z,12.86
2023-04-28T19:03:45.936Z,12.84
2023-04-28T19:05:26.179Z,12.86
2023-04-28T19:07:06.571Z,12.82
2023-04-28T19:08:47.031Z,12.77
2023-04-28T19:10:27.441Z,12.76
2023-04-28T19:12:07.864Z,12.76
2023-04-28T19:13:51.316Z,12.77
2023-04-28T19:15:28.579Z,12.77
2023-04-28T19:17:08.953Z,12.76
2023-04-28T19:18:49.218Z,12.77
2023-04-28T19:20:29.678Z,12.75
2023-04-28T19:22:10.069Z,12.72
2023-04-28T19:23:50.519Z,12.72
2023-04-28T19:25:30.982Z,12.66
2023-04-28T19:27:18.440Z,12.66
2023-04-28T19:28:51.816Z,12.66
2023-04-28T19:30:35.237Z,12.62
2023-04-28T19:32:12.574Z,12.6
2023-04-28T19:33:52.950Z,12.64
2023-04-28T19:35:33.379Z,12.63
2023-04-28T19:37:13.736Z,12.64
2023-04-28T19:38:57.206Z,12.64
2023-04-28T19:40:34.512Z,12.63
2023-04-28T19:42:14.908Z,12.6
2023-04-28T19:44:02.364Z,12.6
2023-04-28T19:45:35.692Z,12.64
2023-04-28T19:47:16.131Z,12.63
2023-04-28T19:48:59.607Z,12.62
2023-04-28T19:50:36.968Z,12.6
2023-04-28T19:52:17.403Z,12.6
2023-04-28T19:53:57.799Z,12.6
2023-04-28T19:55:38.120Z,12.62
2023-04-28T19:57:18.591Z,12.73
2023-04-28T19:58:59.028Z,12.77
2023-04-28T20:00:39.536Z,12.83
2023-04-28T20:02:19.959Z,12.88
2023-04-28T20:04:00.684Z,13
2023-04-28T20:05:40.829Z,13.07
2023-04-28T20:07:21.218Z,13.19
2023-04-28T20:09:01.582Z,13.28
2023-04-28T20:10:41.977Z,13.38
2023-04-28T20:12:22.461Z,13.45
2023-04-28T20:14:02.802Z,13.54
2023-04-28T20:15:43.260Z,13.54
2023-04-28T20:17:26.698Z,13.54
2023-04-28T20:19:04.075Z,13.55
2023-04-28T20:20:44.533Z,13.54
2023-04-28T20:22:24.950Z,13.52
2023-04-28T20:24:05.234Z,13.56
2023-04-28T20:25:45.569Z,13.55
2023-04-28T20:27:25.945Z,13.52
2023-04-28T20:29:08.287Z,13.48
2023-04-28T20:30:46.743Z,13.46
2023-04-28T20:32:27.152Z,13.39
2023-04-28T20:34:07.594Z,13.38
2023-04-28T20:35:48.034Z,13.28
2023-04-28T20:37:28.396Z,13.24
2023-04-28T20:39:08.839Z,13.24
2023-04-28T20:40:49.284Z,13.19
2023-04-28T20:42:29.622Z,13.15
2023-04-28T20:44:10.120Z,13.18
2023-04-28T20:45:50.617Z,13.15
2023-04-28T20:47:30.983Z,13.11
2023-04-28T20:49:11.351Z,13.08
2023-04-28T20:50:51.830Z,13.03
2023-04-28T20:52:32.254Z,12.96
2023-04-28T20:54:12.645Z,12.93
2023-04-28T20:55:53.109Z,12.88
2023-04-28T20:57:33.567Z,12.86
2023-04-28T20:59:13.943Z,12.84
2023-04-28T21:00:54.407Z,12.88
2023-04-28T21:02:34.775Z,12.96
2023-04-28T21:04:15.201Z,13
2023-04-28T21:05:55.482Z,13.03
2023-04-28T21:07:35.915Z,13.03
2023-04-28T21:09:16.328Z,13
2023-04-28T21:10:56.739Z,13.01
2023-04-28T21:12:37.147Z,13.03
2023-04-28T21:14:17.585Z,13.06
2023-04-28T21:15:58.149Z,13.07
2023-04-28T21:17:38.507Z,13.06
2023-04-28T21:19:18.864Z,13.04
2023-04-28T21:20:59.323Z,13.06
2023-04-28T21:22:39.765Z,13.08
2023-04-28T21:24:20.202Z,13.06
2023-04-28T21:26:00.634Z,13.04
2023-04-28T21:27:41.051Z,13.07
2023-04-28T21:29:21.397Z,13.08
2023-04-28T21:31:01.813Z,13.08
2023-04-28T21:32:42.288Z,13.1
2023-04-28T21:34:22.543Z,13.08
2023-04-28T21:36:02.903Z,13.13
2023-04-28T21:37:43.236Z,13.11
2023-04-28T21:39:23.620Z,13.14
2023-04-28T21:41:04.026Z,13.1
2023-04-28T21:42:44.413Z,13.11
2023-04-28T21:44:24.780Z,13.11
2023-04-28T21:46:05.261Z,13.13
2023-04-28T21:47:45.671Z,13.15
2023-04-28T21:49:26.103Z,13.15
2023-04-28T21:51:06.419Z,13.14
2023-04-28T21:52:46.801Z,13.1
2023-04-28T21:54:27.191Z,13.11
2023-04-28T21:56:07.539Z,13.11
2023-04-28T21:57:48.002Z,13.1
2023-04-28T21:59:28.346Z,13.11
2023-04-28T22:01:08.857Z,13.11